aviador You're here:

LFMY Decoded Metar

SALON in FRANCE
Report Time2017-08-17 13:30:00
UTC Time2017-08-17 13:36:34
Flight Rules vfr VFR
Wind340° at 06 kt
W.Decomp.*RWY 34: 6.0 kt HW 0.1 kt LCW
W.Rank340° ranks 3
Current wind is below 340° avg. (13.4)
Visibility9999 m
Phenomena:N/A
Clouds:N/A
Expected CloudBase > 7,600 ft AGL from Temp-Dew spread
CeilingNone
Temp35°C (ISA +20)
Dew Point16°C (32% RH)
Heat Index35.1°C
AAT34.8°C
QNH1016 hPa
Density Alt2,654 ft
Elevation197 ft
Report Wrong Elevation
Raw Report
METAR LFMY 171330Z AUTO 34006KT 300V040 CAVOK 35/16 Q1016 NOSIG=

Extra information for LFMY:More info

Metar Taf Metar & Taf Last 4 Metars F.Rules Stats Wind Profile Meteogram Temp Stats Airport Information Weather charts Add Link Nearby VenuesMetar ALERT Operation Metar Decoded Social comments